Time;durP1;ratioP1;P1;durP2;ratioP2;P2;SDS_P1;SDS_P2;PMS_P1;PMS_P2;Temp;Humidity;BMP_temperature;BMP_pressure;BME280_temperature;BME280_humidity;BME280_pressure;Samples;Min_cycle;Max_cycle;Signal;HPM_P1;HPM_P2
2021/07/15 00:01:10;;;;;;;;;;;;;;;18.20;100.00;101183.03;5074673;28;20052;-34
2021/07/15 00:03:36;;;;;;;29.45;23.08;;;;;;;18.08;100.00;101163.31;5074139;28;19956;-34
2021/07/15 00:06:01;;;;;;;;;;;;;;;18.18;100.00;101181.63;5074210;28;20457;-34
2021/07/15 00:08:28;;;;;;;32.25;23.77;;;;;;;18.10;100.00;101188.47;5074295;28;19912;-34
2021/07/15 00:11:00;;;;;;;32.90;25.20;;;;;;;18.08;100.00;101184.38;5074243;28;20411;-34
2021/07/15 00:13:26;;;;;;;32.45;25.52;;;;;;;18.05;100.00;101179.44;5073921;28;20539;-34
2021/07/15 00:15:54;;;;;;;;;;;;;;;18.08;100.00;101173.44;5074936;28;20056;-34
2021/07/15 00:18:33;;;;;;;34.65;25.17;;;;;;;18.07;100.00;101182.75;5073531;28;20382;-34
2021/07/15 00:21:01;;;;;;;32.72;24.90;;;;;;;18.06;100.00;101187.41;5074476;28;20039;-34
2021/07/15 00:23:27;;;;;;;36.42;25.70;;;;;;;18.01;100.00;101182.75;5073576;28;20092;-34
2021/07/15 00:25:52;;;;;;;;;;;;;;;18.08;100.00;101184.38;5074452;28;20028;-33
2021/07/15 00:28:19;;;;;;;38.58;24.65;;;;;;;18.04;100.00;101178.63;5073816;28;20003;-34
2021/07/15 00:30:45;;;;;;;37.15;25.17;;;;;;;18.02;100.00;101186.28;5074048;28;20021;-34
2021/07/15 00:33:11;;;;;;;31.70;24.13;;;;;;;18.01;100.00;101180.00;5073929;28;20104;-34
2021/07/15 00:35:37;;;;;;;;;;;;;;;18.05;100.00;101179.44;5074186;28;20127;-34
2021/07/15 00:38:04;;;;;;;32.67;24.70;;;;;;;17.86;100.00;101160.00;5073389;28;19912;-34
2021/07/15 00:40:30;;;;;;;31.83;24.35;;;;;;;17.99;100.00;101182.16;5073408;28;20021;-34
2021/07/15 00:42:56;;;;;;;33.70;24.08;;;;;;;17.98;100.00;101171.50;5074127;28;20031;-34
2021/07/15 00:45:21;;;;;;;;;;;;;;;18.01;100.00;101177.25;5074022;28;20025;-34
2021/07/15 00:47:48;;;;;;;27.25;21.13;;;;;;;17.93;100.00;101150.44;5072249;28;20013;-34
2021/07/15 00:50:15;;;;;;;30.35;22.05;;;;;;;17.99;100.00;101173.16;5074106;28;20504;-34
2021/07/15 00:52:41;;;;;;;27.48;21.63;;;;;;;17.99;100.00;101171.22;5072427;28;20326;-34
2021/07/15 00:55:08;;;;;;;;;;;;;;;18.03;100.00;101174.25;5073920;28;20034;-34
2021/07/15 00:57:34;;;;;;;28.88;21.63;;;;;;;18.01;100.00;101162.75;5073514;28;19996;-34
2021/07/15 01:00:00;;;;;;;;;;;;;;;18.04;100.00;101172.31;5073952;28;20056;-34
2021/07/15 01:02:25;;;;;;;27.15;21.02;;;;;;;18.01;100.00;101162.75;5073203;28;19908;-34
2021/07/15 01:04:50;;;;;;;;;;;;;;;18.05;100.00;101158.38;5073793;28;20437;-34
2021/07/15 01:07:16;;;;;;;31.55;18.52;;;;;;;17.90;100.00;101142.75;5073585;28;19908;-34
2021/07/15 01:09:41;;;;;;;22.58;18.02;;;;;;;17.95;100.00;101167.38;5073071;28;20074;-34
2021/07/15 01:12:25;;;;;;;;;;;;;;;17.97;100.00;101156.19;5073507;28;20021;-34
2021/07/15 01:15:16;;;;;;;23.55;18.08;;;;;;;17.91;100.00;101169.06;5073522;28;19943;-34
2021/07/15 01:17:59;;;;;;;26.02;18.70;;;;;;;17.87;100.00;101161.66;5072906;28;20028;-34
2021/07/15 01:20:34;;;;;;;25.27;19.50;;;;;;;17.89;100.00;101171.22;5073259;28;20403;-35
2021/07/15 01:23:23;;;;;;;28.20;21.05;;;;;;;17.81;100.00;101149.88;5073485;28;20020;-34
2021/07/15 01:25:51;;;;;;;24.30;19.65;;;;;;;17.87;100.00;101150.72;5073613;28;20027;-34
2021/07/15 01:28:55;;;;;;;25.58;20.02;;;;;;;17.86;100.00;101160.00;5073089;28;20039;-34
2021/07/15 01:31:23;;;;;;;27.50;19.63;;;;;;;17.67;100.00;101135.06;5073176;28;20016;-34
2021/07/15 01:33:50;;;;;;;27.13;20.90;;;;;;;17.82;100.00;101175.31;5073275;28;20021;-34
2021/07/15 01:36:19;;;;;;;26.67;20.25;;;;;;;17.80;100.00;101172.03;5073114;28;20044;-34
2021/07/15 01:38:52;;;;;;;26.90;19.42;;;;;;;17.80;100.00;101161.91;5072959;28;20166;-34
2021/07/15 01:41:25;;;;;;;26.20;19.30;;;;;;;17.82;100.00;101176.16;5073273;28;20031;-34
2021/07/15 01:43:58;;;;;;;28.52;20.77;;;;;;;17.81;100.00;101168.19;5073751;28;20032;-34
2021/07/15 01:46:23;;;;;;;27.13;20.15;;;;;;;17.80;100.00;101161.91;5073258;28;20032;-34
2021/07/15 01:48:49;;;;;;;;;;;;;;;17.84;100.00;101164.91;5073664;28;20020;-34
2021/07/15 01:51:15;;;;;;;25.30;19.63;;;;;;;17.76;100.00;101136.19;5073772;28;19908;-34
2021/07/15 01:53:42;;;;;;;29.40;21.25;;;;;;;17.83;100.00;101149.63;5073408;28;20032;-34
2021/07/15 01:56:10;;;;;;;29.25;19.60;;;;;;;17.85;100.00;101152.88;5072919;28;20040;-35
2021/07/15 01:58:38;;;;;;;25.02;19.55;;;;;;;17.75;100.00;101140.84;5072627;28;20044;-34
2021/07/15 02:01:07;;;;;;;22.58;19.20;;;;;;;17.81;100.00;101154.50;5073663;28;20360;-34
2021/07/15 02:03:35;;;;;;;24.48;19.92;;;;;;;17.73;100.00;101139.47;5071876;28;20350;-34
2021/07/15 02:06:01;;;;;;;29.33;21.70;;;;;;;17.78;100.00;101150.44;5076324;28;20480;-34
2021/07/15 02:08:28;;;;;;;28.67;20.27;;;;;;;17.78;100.00;101152.34;5076338;28;20060;-34
2021/07/15 02:10:54;;;;;;;29.73;22.60;;;;;;;17.80;100.00;101147.41;5076038;28;20456;-34
2021/07/15 02:13:20;;;;;;;;;;;;;;;17.82;100.00;101148.78;5076685;28;20039;-34
2021/07/15 02:15:48;;;;;;;29.35;22.35;;;;;;;17.78;100.00;101158.63;5077104;28;20328;-36
2021/07/15 02:18:16;;;;;;;28.10;21.67;;;;;;;17.69;100.00;101144.63;5075705;28;20376;-34
2021/07/15 02:20:44;;;;;;;30.95;22.70;;;;;;;17.69;100.00;101154.75;5076091;28;20016;-34
2021/07/15 02:23:10;;;;;;;28.98;21.48;;;;;;;17.64;100.00;101146.53;5074804;28;20353;-34
2021/07/15 02:25:37;;;;;;;30.38;22.02;;;;;;;17.74;100.00;101176.66;5076809;28;20384;-34
2021/07/15 02:28:06;;;;;;;39.58;23.17;;;;;;;17.77;100.00;101184.34;5076223;28;20020;-34
2021/07/15 02:30:31;;;;;;;59.17;21.05;;;;;;;17.77;100.00;101167.13;5076806;28;20361;-36
2021/07/15 02:33:01;;;;;;;;;;;;;;;17.72;100.00;101171.44;5076027;28;20025;-36
2021/07/15 02:35:31;;;;;;;26.55;16.60;;;;;;;17.66;100.00;101177.16;5075983;28;19908;-36
2021/07/15 02:38:00;;;;;;;22.65;16.40;;;;;;;17.55;100.00;101167.28;5075796;28;20040;-34
2021/07/15 02:40:27;;;;;;;25.25;17.75;;;;;;;17.60;100.00;101181.81;5076059;28;20025;-34
2021/07/15 02:42:53;;;;;;;24.85;18.52;;;;;;;17.58;100.00;101186.72;5075407;28;20021;-34
2021/07/15 02:45:21;;;;;;;21.88;16.77;;;;;;;17.46;100.00;101173.28;5075709;28;20017;-34
2021/07/15 02:47:48;;;;;;;21.90;17.35;;;;;;;17.55;100.00;101198.19;5075342;28;20380;-34
2021/07/15 02:50:17;;;;;;;23.73;18.00;;;;;;;17.55;100.00;101197.38;5075644;28;20032;-35
2021/07/15 02:52:43;;;;;;;23.75;18.48;;;;;;;17.55;100.00;101197.38;5075225;28;20477;-34
2021/07/15 02:55:09;;;;;;;;;;;;;;;17.53;100.00;101189.44;5076026;28;20029;-34
2021/07/15 02:57:55;;;;;;;24.80;18.70;;;;;;;17.54;100.00;101187.53;5075431;28;20399;-34
2021/07/15 03:00:21;;;;;;;22.77;18.52;;;;;;;17.52;100.00;101196.00;5075963;28;20452;-34
2021/07/15 03:02:53;;;;;;;;;;;;;;;17.50;100.00;101200.91;5076297;28;20107;-34
2021/07/15 03:05:26;;;;;;;25.80;19.35;;;;;;;17.52;100.00;101190.53;5074965;28;19916;-34
2021/07/15 03:08:06;;;;;;;34.10;22.58;;;;;;;17.42;100.00;101185.00;5075319;28;20036;-34
2021/07/15 03:10:34;;;;;;;35.45;22.83;;;;;;;17.47;100.00;101193.22;5074909;28;20028;-34
2021/07/15 03:13:01;;;;;;;39.83;25.13;;;;;;;17.46;100.00;101199.81;5074758;28;20020;-34
2021/07/15 03:15:27;;;;;;;38.67;24.80;;;;;;;17.46;100.00;101199.81;5074558;28;20032;-34
2021/07/15 03:17:53;;;;;;;31.10;22.70;;;;;;;17.47;100.00;101198.69;5075038;28;20016;-34
2021/07/15 03:20:21;;;;;;;;;;;;;;;17.47;100.00;101198.69;5076237;28;20058;-35
2021/07/15 03:22:52;;;;;;;30.83;22.15;;;;;;;17.41;100.00;101192.41;5075207;28;20325;-35
2021/07/15 03:25:19;;;;;;;29.45;21.40;;;;;;;17.47;100.00;101196.81;5075094;28;20488;-34
2021/07/15 03:27:45;;;;;;;32.47;23.15;;;;;;;17.45;100.00;101209.91;5075083;28;20059;-34
2021/07/15 03:30:13;;;;;;;30.70;21.80;;;;;;;17.47;100.00;101212.38;5075134;28;20021;-34
2021/07/15 03:32:39;;;;;;;34.97;22.42;;;;;;;17.45;100.00;101209.91;5074552;28;20036;-34
2021/07/15 03:35:06;;;;;;;31.80;21.77;;;;;;;17.42;100.00;101212.34;5074702;28;20457;-34
2021/07/15 03:37:34;;;;;;;30.38;21.60;;;;;;;17.30;100.00;101188.00;5075399;28;20403;-35
2021/07/15 03:40:00;;;;;;;29.67;21.33;;;;;;;17.39;100.00;101205.53;5075148;28;20024;-34
2021/07/15 03:42:27;;;;;;;29.30;21.13;;;;;;;17.41;100.00;101211.53;5074848;28;20027;-35
2021/07/15 03:44:53;;;;;;;32.80;20.48;;;;;;;17.42;100.00;101204.16;5074215;28;20107;-35
2021/07/15 03:47:22;;;;;;;28.73;19.80;;;;;;;17.41;100.00;101219.72;5075130;28;20150;-35
2021/07/15 03:49:49;;;;;;;30.38;20.25;;;;;;;17.41;100.00;101211.53;5074408;28;20040;-34
2021/07/15 03:52:17;;;;;;;29.23;20.70;;;;;;;17.41;100.00;101216.19;5074438;28;20058;-35
2021/07/15 03:54:48;;;;;;;27.00;18.98;;;;;;;17.29;100.00;101201.94;5074460;28;20028;-34
2021/07/15 03:57:17;;;;;;;21.23;16.75;;;;;;;17.41;100.00;101213.44;5074598;28;20107;-34
2021/07/15 03:59:46;;;;;;;21.75;16.30;;;;;;;17.38;100.00;101219.47;5075076;28;20021;-35
2021/07/15 04:02:14;;;;;;;20.85;15.13;;;;;;;17.38;100.00;101222.22;5074158;28;20028;-34
2021/07/15 04:04:44;;;;;;;22.48;15.43;;;;;;;17.32;100.00;101206.84;5074070;28;20024;-34
2021/07/15 04:07:10;;;;;;;18.55;14.50;;;;;;;17.36;100.00;101216.97;5073817;28;20054;-34
2021/07/15 04:09:36;;;;;;;;;;;;;;;17.40;100.00;101222.75;5074764;28;20069;-34
2021/07/15 04:12:02;;;;;;;18.77;14.35;;;;;;;17.36;100.00;101227.09;5074358;28;19904;-34
2021/07/15 04:14:48;;;;;;;18.08;14.15;;;;;;;17.33;100.00;101222.19;5073938;28;20035;-35
2021/07/15 04:17:16;;;;;;;16.07;12.47;;;;;;;17.38;100.00;101241.34;5074324;28;20033;-35
2021/07/15 04:19:43;;;;;;;16.58;12.90;;;;;;;17.35;100.00;101220.00;5073822;28;20278;-35
2021/07/15 04:22:12;;;;;;;16.25;13.63;;;;;;;17.38;100.00;101222.22;5073621;28;20067;-34
2021/07/15 04:24:39;;;;;;;16.52;12.98;;;;;;;17.37;100.00;101228.75;5074647;28;20082;-35
2021/07/15 04:27:06;;;;;;;16.98;12.48;;;;;;;17.41;100.00;101236.13;5073922;28;20013;-34
2021/07/15 04:29:33;;;;;;;15.27;12.77;;;;;;;17.39;100.00;101232.88;5073730;28;20365;-34
2021/07/15 04:32:18;;;;;;;13.98;12.00;;;;;;;17.40;100.00;101239.16;5074529;28;20044;-34
2021/07/15 04:34:45;;;;;;;13.05;11.65;;;;;;;17.40;100.00;101234.50;5073974;28;20044;-34
2021/07/15 04:37:11;;;;;;;13.90;10.85;;;;;;;17.43;100.00;101239.44;5073616;28;20040;-35
2021/07/15 04:39:37;;;;;;;14.82;11.95;;;;;;;17.39;100.00;101248.44;5073325;28;20017;-34
2021/07/15 04:42:03;;;;;;;11.40;9.98;;;;;;;17.41;100.00;101249.00;5074229;28;20337;-35
2021/07/15 04:44:33;;;;;;;13.05;10.85;;;;;;;17.37;100.00;101253.34;5073275;28;20016;-34
2021/07/15 04:47:01;;;;;;;12.00;10.27;;;;;;;17.39;100.00;101248.44;5073555;28;20069;-34
2021/07/15 04:49:28;;;;;;;13.23;9.35;;;;;;;17.40;100.00;101247.34;5074309;28;20023;-34
2021/07/15 04:51:55;;;;;;;10.50;9.07;;;;;;;17.43;100.00;101244.91;5074051;28;20464;-34
2021/07/15 04:54:22;;;;;;;11.07;9.00;;;;;;;17.40;100.00;101255.56;5073502;28;20021;-34
2021/07/15 04:56:49;;;;;;;10.98;8.82;;;;;;;17.42;100.00;101262.41;5073776;28;20036;-34
2021/07/15 04:59:15;;;;;;;9.63;7.80;;;;;;;17.40;100.00;101277.41;5073440;28;20028;-35
2021/07/15 05:01:40;;;;;;;9.43;8.25;;;;;;;17.42;100.00;101265.16;5073363;28;20085;-35
2021/07/15 05:04:06;;;;;;;;;;;;;;;17.47;100.00;101267.91;5073775;28;20017;-35
2021/07/15 05:06:31;;;;;;;12.18;9.15;;;;;;;17.42;100.00;101256.09;5073919;28;20248;-35
2021/07/15 05:08:57;;;;;;;;;;;;;;;17.47;100.00;101258.84;5073541;28;20036;-35
2021/07/15 05:11:22;;;;;;;11.18;8.82;;;;;;;17.45;100.00;101252.84;5073401;28;19905;-35
2021/07/15 05:13:47;;;;;;;;;;;;;;;17.46;100.00;101260.75;5074295;28;20360;-35
2021/07/15 05:16:12;;;;;;;11.83;9.83;;;;;;;17.46;100.00;101266.22;5073822;28;19995;-35
2021/07/15 05:18:38;;;;;;;;;;;;;;;17.49;100.00;101259.41;5073755;28;20267;-35
2021/07/15 05:21:04;;;;;;;13.38;10.13;;;;;;;17.48;100.00;101264.06;5074059;28;19995;-35
2021/07/15 05:23:29;;;;;;;;;;;;;;;17.53;100.00;101262.44;5074504;28;20024;-35
2021/07/15 05:25:56;;;;;;;11.80;9.50;;;;;;;17.49;100.00;101265.72;5073263;28;19908;-35
2021/07/15 05:28:22;;;;;;;13.63;9.80;;;;;;;17.46;100.00;101259.94;5072872;28;20025;-35
2021/07/15 05:30:47;;;;;;;12.25;8.75;;;;;;;17.49;100.00;101265.72;5073447;28;20078;-35
2021/07/15 05:33:13;;;;;;;11.90;8.98;;;;;;;17.43;100.00;101249.56;5073071;28;20333;-35
2021/07/15 05:35:39;;;;;;;10.98;9.02;;;;;;;17.45;100.00;101258.31;5073042;28;20044;-35
2021/07/15 05:38:05;;;;;;;11.85;9.45;;;;;;;17.43;100.00;101255.03;5073105;28;20021;-35
2021/07/15 05:40:31;;;;;;;;;;;;;;;17.52;100.00;101272.56;5077117;28;20024;-35
2021/07/15 05:42:56;;;;;;;10.80;8.80;;;;;;;17.51;100.00;101266.25;5076557;28;19919;-35
2021/07/15 05:45:22;;;;;;;13.38;10.15;;;;;;;17.51;100.00;101259.97;5076984;28;20025;-35
2021/07/15 05:47:47;;;;;;;;;;;;;;;17.54;100.00;101262.19;5076894;28;20036;-35
2021/07/15 05:50:12;;;;;;;11.85;8.48;;;;;;;17.51;100.00;101270.91;5076971;28;19911;-35
2021/07/15 05:52:38;;;;;;;;;;;;;;;17.55;100.00;101263.81;5077076;28;20376;-35
2021/07/15 05:55:03;;;;;;;9.83;8.83;;;;;;;17.50;100.00;101261.06;5076300;28;19904;-35
2021/07/15 05:57:32;;;;;;;;;;;;;;;17.54;100.00;101259.44;5076870;28;20738;-35
2021/07/15 05:59:58;;;;;;;11.27;8.88;;;;;;;17.51;100.00;101265.44;5076794;28;19962;-35
2021/07/15 06:02:23;;;;;;;10.02;8.57;;;;;;;17.50;100.00;101266.53;5076491;28;20044;-35
2021/07/15 06:04:48;;;;;;;;;;;;;;;17.52;100.00;101269.84;5076916;28;20016;-35
2021/07/15 06:07:13;;;;;;;11.10;8.73;;;;;;;17.29;100.00;101249.22;5077181;28;19912;-35
2021/07/15 06:09:39;;;;;;;;;;;;;;;17.49;100.00;101276.66;5077080;28;20270;-35
2021/07/15 06:12:04;;;;;;;9.53;8.03;;;;;;;17.49;100.00;101292.22;5076676;28;19954;-35
2021/07/15 06:14:30;;;;;;;;;;;;;;;17.50;100.00;101289.22;5077038;28;20024;-35
2021/07/15 06:16:55;;;;;;;12.07;8.93;;;;;;;17.50;100.00;101296.59;5077057;28;19957;-35
2021/07/15 06:19:20;;;;;;;;;;;;;;;17.54;100.00;101310.56;5076946;28;20033;-35
2021/07/15 06:21:46;;;;;;;11.53;8.13;;;;;;;17.54;100.00;101314.13;5076254;28;19904;-35
2021/07/15 06:24:11;;;;;;;;;;;;;;;17.57;100.00;101312.75;5076237;28;20052;-35
2021/07/15 06:26:37;;;;;;;11.03;8.87;;;;;;;17.53;100.00;101312.50;5076324;28;20345;-35
2021/07/15 06:29:04;;;;;;;10.20;8.18;;;;;;;17.54;100.00;101321.50;5076071;28;20263;-35
2021/07/15 06:31:29;;;;;;;12.65;9.10;;;;;;;17.52;100.00;101321.78;5075756;28;20020;-35
2021/07/15 06:33:55;;;;;;;11.35;9.20;;;;;;;17.53;100.00;101322.59;5075586;28;20372;-35
2021/07/15 06:36:20;;;;;;;;;;;;;;;17.55;100.00;101329.44;5076581;28;20098;-35
2021/07/15 06:38:46;;;;;;;10.88;8.52;;;;;;;17.50;100.00;101341.16;5075814;28;19909;-35
2021/07/15 06:41:11;;;;;;;9.77;8.73;;;;;;;17.43;100.00;101323.38;5076070;28;20062;-35
2021/07/15 06:43:39;;;;;;;9.50;8.32;;;;;;;17.51;100.00;101334.59;5076050;28;20364;-35
2021/07/15 06:46:05;;;;;;;11.68;8.98;;;;;;;17.46;100.00;101336.50;5075907;28;20359;-36
2021/07/15 06:48:30;;;;;;;14.18;9.18;;;;;;;17.42;100.00;101324.44;5075640;28;20027;-35
2021/07/15 06:50:56;;;;;;;;;;;;;;;17.55;100.00;101334.91;5074929;28;20027;-35
2021/07/15 06:53:22;;;;;;;13.73;8.98;;;;;;;17.53;100.00;101342.56;5074604;28;19959;-35
2021/07/15 06:55:47;;;;;;;;;;;;;;;17.58;100.00;101344.50;5076068;28;20028;-35
2021/07/15 06:58:13;;;;;;;13.13;9.97;;;;;;;17.54;100.00;101352.41;5075505;28;20336;-35
2021/07/15 07:00:38;;;;;;;;;;;;;;;17.60;100.00;101361.47;5075866;28;20655;-35
2021/07/15 07:03:03;;;;;;;19.60;11.80;;;;;;;17.53;100.00;101356.25;5075075;28;19911;-35
2021/07/15 07:05:29;;;;;;;20.83;13.50;;;;;;;17.43;100.00;101332.41;5075632;28;20317;-35
2021/07/15 07:07:54;;;;;;;;;;;;;;;17.57;100.00;101368.28;5076284;28;20020;-35
2021/07/15 07:10:20;;;;;;;23.80;14.80;;;;;;;17.45;100.00;101362.19;5075336;28;19904;-35
2021/07/15 07:12:46;;;;;;;24.08;15.35;;;;;;;17.48;100.00;101369.88;5075501;28;20280;-35
2021/07/15 07:15:13;;;;;;;;;;;;;;;17.50;100.00;101381.38;5075879;28;20024;-35
2021/07/15 07:17:39;;;;;;;23.15;13.60;;;;;;;17.48;100.00;101375.34;5075085;28;19912;-35
2021/07/15 07:20:05;;;;;;;;;;;;;;;17.55;100.00;101381.38;5075506;28;20372;-35
2021/07/15 07:22:30;;;;;;;26.25;16.05;;;;;;;17.46;100.00;101375.59;5074950;28;19912;-36
2021/07/15 07:24:56;;;;;;;23.38;15.25;;;;;;;17.47;100.00;101368.22;5075029;28;20025;-35
2021/07/15 07:27:21;;;;;;;;;;;;;;;17.57;100.00;101387.44;5075009;28;20033;-36
2021/07/15 07:29:46;;;;;;;18.90;11.73;;;;;;;17.52;100.00;101384.69;5074637;28;20007;-36
2021/07/15 07:32:12;;;;;;;17.20;11.38;;;;;;;17.50;100.00;101381.38;5074853;28;20348;-36
2021/07/15 07:34:37;;;;;;;16.70;11.45;;;;;;;17.50;100.00;101378.63;5075071;28;20411;-35
2021/07/15 07:37:02;;;;;;;;;;;;;;;17.57;100.00;101375.66;5075067;28;20040;-35
2021/07/15 07:39:28;;;;;;;12.88;10.45;;;;;;;17.48;100.00;101372.63;5074912;28;19908;-36
2021/07/15 07:41:53;;;;;;;;;;;;;;;17.56;100.00;101379.47;5075113;28;20025;-35
2021/07/15 07:44:18;;;;;;;11.70;9.63;;;;;;;17.49;100.00;101386.00;5074583;28;19908;-36
2021/07/15 07:46:44;;;;;;;;;;;;;;;17.54;100.00;101382.50;5075763;28;20020;-36
2021/07/15 07:49:09;;;;;;;14.52;8.80;;;;;;;17.50;100.00;101387.66;5075063;28;19908;-35
2021/07/15 07:51:35;;;;;;;11.75;9.02;;;;;;;17.54;100.00;101392.59;5074554;28;20028;-36
2021/07/15 07:54:01;;;;;;;12.00;8.65;;;;;;;17.53;100.00;101390.97;5074421;28;20024;-35
2021/07/15 07:56:27;;;;;;;12.65;8.45;;;;;;;17.50;100.00;101386.84;5075270;28;20441;-35
2021/07/15 07:58:53;;;;;;;10.68;9.07;;;;;;;17.50;100.00;101395.84;5074270;28;20012;-35
2021/07/15 08:01:19;;;;;;;10.30;7.88;;;;;;;17.53;100.00;101388.22;5073938;28;20479;-35
2021/07/15 08:03:44;;;;;;;;;;;;;;;17.59;100.00;101398.94;5075231;28;20342;-35
2021/07/15 08:06:09;;;;;;;10.30;7.80;;;;;;;17.49;100.00;101396.13;5074453;28;19908;-35
2021/07/15 08:08:36;;;;;;;;;;;;;;;17.60;100.00;101406.03;5074578;28;20024;-35
2021/07/15 08:11:02;;;;;;;9.82;7.30;;;;;;;17.48;100.00;101387.09;5074145;28;19904;-36
2021/07/15 08:13:28;;;;;;;;;;;;;;;17.59;100.00;101401.66;5074713;28;20118;-35
2021/07/15 08:15:53;;;;;;;11.30;8.50;;;;;;;17.46;100.00;101391.19;5073812;28;19958;-35
2021/07/15 08:18:18;;;;;;;;;;;;;;;17.59;100.00;101406.31;5074601;28;20266;-35
2021/07/15 08:20:44;;;;;;;11.70;8.18;;;;;;;17.58;100.00;101407.41;5073719;28;19910;-36
2021/07/15 08:23:09;;;;;;;;;;;;;;;17.64;100.00;101414.53;5074390;28;20029;-35
2021/07/15 08:25:35;;;;;;;11.63;7.97;;;;;;;17.62;100.00;101416.72;5073625;28;19915;-35
2021/07/15 08:28:00;;;;;;;;;;;;;;;17.67;100.00;101419.50;5075114;28;20274;-35
2021/07/15 08:30:25;;;;;;;12.80;8.93;;;;;;;17.51;100.00;101422.09;5074187;28;19911;-35
2021/07/15 08:32:51;;;;;;;;;;;;;;;17.57;100.00;101422.13;5074216;28;20024;-35
2021/07/15 08:35:16;;;;;;;18.77;11.23;;;;;;;17.31;100.00;101410.22;5073876;28;19908;-35
2021/07/15 08:37:42;;;;;;;;;;;;;;;17.49;100.00;101434.41;5074586;28;20742;-36
2021/07/15 08:40:08;;;;;;;15.82;10.77;;;;;;;17.42;100.00;101451.03;5074054;28;19935;-35
2021/07/15 08:42:36;;;;;;;21.10;11.50;;;;;;;17.44;100.00;101448.88;5073644;28;20028;-36
2021/07/15 08:45:06;;;;;;;19.65;12.75;;;;;;;17.44;100.00;101453.50;5074246;28;20048;-35
2021/07/15 08:47:35;;;;;;;21.73;12.63;;;;;;;17.34;100.00;101440.59;5074221;28;20103;-36
2021/07/15 08:50:01;;;;;;;21.20;12.25;;;;;;;17.35;100.00;101433.22;5073864;28;20029;-35
2021/07/15 08:52:27;;;;;;;20.55;11.52;;;;;;;17.36;100.00;101424.72;5073477;28;20586;-35
2021/07/15 08:55:16;;;;;;;18.30;11.40;;;;;;;17.49;100.00;101439.88;5073646;28;20012;-35
2021/07/15 08:57:42;;;;;;;17.88;11.32;;;;;;;17.44;100.00;101448.88;5073407;28;20020;-36
2021/07/15 09:00:13;;;;;;;14.00;9.77;;;;;;;17.48;100.00;101457.38;5073440;28;20539;-35
2021/07/15 09:02:39;;;;;;;13.75;9.32;;;;;;;17.39;100.00;101446.09;5073837;28;20079;-36
2021/07/15 09:05:06;;;;;;;11.88;8.55;;;;;;;17.49;100.00;101461.75;5073388;28;20396;-35
2021/07/15 09:07:32;;;;;;;11.23;8.38;;;;;;;17.41;100.00;101468.50;5074263;28;20479;-35
2021/07/15 09:09:57;;;;;;;;;;;;;;;17.49;100.00;101457.09;5074705;28;20028;-35
2021/07/15 09:12:23;;;;;;;11.65;8.38;;;;;;;17.45;100.00;101466.09;5073407;28;20042;-35
2021/07/15 09:14:48;;;;;;;;;;;;;;;17.48;100.00;101466.41;5076655;28;20035;-35
2021/07/15 09:17:15;;;;;;;10.33;8.17;;;;;;;17.34;100.00;101465.19;5077788;28;19904;-35
2021/07/15 09:19:42;;;;;;;11.85;9.38;;;;;;;17.38;100.00;101476.44;5077111;28;20727;-35
2021/07/15 09:22:14;;;;;;;12.38;9.38;;;;;;;17.35;100.00;101482.41;5077352;28;20039;-35
2021/07/15 09:24:41;;;;;;;14.90;9.85;;;;;;;17.30;100.00;101468.69;5077551;28;20077;-35
2021/07/15 09:27:19;;;;;;;16.67;10.32;;;;;;;17.29;100.00;101481.56;5077742;28;20134;-35
2021/07/15 09:30:02;;;;;;;18.40;11.60;;;;;;;17.40;100.00;101477.81;5077151;28;20031;-35
2021/07/15 09:32:27;;;;;;;16.77;11.80;;;;;;;17.34;100.00;101475.31;5077166;28;20150;-35
2021/07/15 09:35:05;;;;;;;19.55;11.77;;;;;;;17.42;100.00;101483.84;5076903;28;20050;-35
2021/07/15 09:37:35;;;;;;;19.45;11.77;;;;;;;17.44;100.00;101487.13;5076822;28;20036;-35
2021/07/15 09:40:02;;;;;;;17.35;12.27;;;;;;;17.45;100.00;101487.97;5076650;28;20099;-35
2021/07/15 09:42:28;;;;;;;18.15;11.30;;;;;;;17.47;100.00;101491.25;5076949;28;20452;-35
2021/07/15 09:44:54;;;;;;;17.77;11.00;;;;;;;17.54;100.00;101496.50;5077534;28;20024;-35
2021/07/15 09:47:29;;;;;;;;;;;;;;;17.63;100.00;101503.97;5077476;28;20028;-35
2021/07/15 09:49:54;;;;;;;17.83;11.35;;;;;;;17.60;100.00;101490.81;5077070;28;19915;-35
2021/07/15 09:52:24;;;;;;;14.40;10.88;;;;;;;17.61;100.00;101492.44;5077034;28;20024;-36
2021/07/15 09:54:49;;;;;;;15.10;11.07;;;;;;;17.60;100.00;101492.72;5076384;28;20027;-35
2021/07/15 09:57:28;;;;;;;16.50;11.32;;;;;;;17.59;100.00;101485.59;5076803;28;20024;-35
2021/07/15 09:59:56;;;;;;;19.25;11.05;;;;;;;17.63;100.00;101492.22;5076610;28;20028;-35
2021/07/15 10:02:31;;;;;;;17.85;10.88;;;;;;;17.65;100.00;101500.97;5076828;28;20070;-35
2021/07/15 10:04:57;;;;;;;22.67;11.40;;;;;;;17.73;100.00;101501.34;5076729;28;20021;-35
2021/07/15 10:07:24;;;;;;;;;;;;;;;17.84;100.00;101498.66;5076848;28;20274;-35
2021/07/15 10:09:49;;;;;;;14.80;11.55;;;;;;;17.85;100.00;101497.56;5076669;28;19952;-35
2021/07/15 10:12:26;;;;;;;;;;;;;;;17.89;100.00;101504.16;5077202;28;20458;-36
2021/07/15 10:14:51;;;;;;;18.27;10.57;;;;;;;17.75;100.00;101509.28;5076400;28;19912;-35
2021/07/15 10:17:37;;;;;;;16.75;10.88;;;;;;;17.69;100.00;101513.84;5076045;28;20040;-35
2021/07/15 10:20:14;;;;;;;15.57;10.75;;;;;;;17.70;100.00;101503.72;5076871;28;20065;-35
2021/07/15 10:22:40;;;;;;;16.02;10.75;;;;;;;17.78;100.00;101497.00;5075487;28;20020;-35
2021/07/15 10:25:06;;;;;;;;;;;;;;;17.82;100.00;101504.41;5076327;28;20031;-35
2021/07/15 10:27:32;;;;;;;17.08;10.63;;;;;;;17.70;100.00;101496.34;5076613;28;19908;-35
2021/07/15 10:30:00;;;;;;;17.40;11.02;;;;;;;17.73;100.00;101501.34;5076299;28;20024;-36
2021/07/15 10:32:27;;;;;;;14.18;9.90;;;;;;;17.77;100.00;101506.28;5076331;28;20021;-35
2021/07/15 10:34:54;;;;;;;14.13;10.07;;;;;;;17.70;100.00;101517.41;5076470;28;20097;-36
2021/07/15 10:37:21;;;;;;;15.48;10.13;;;;;;;17.67;100.00;101513.31;5076475;28;20127;-36
2021/07/15 10:39:48;;;;;;;16.90;10.35;;;;;;;17.62;100.00;101509.72;5075771;28;20111;-35
2021/07/15 10:42:14;;;;;;;18.05;10.90;;;;;;;17.67;100.00;101509.75;5076416;28;20380;-35
2021/07/15 10:44:39;;;;;;;;;;;;;;;17.73;100.00;101523.22;5076232;28;20081;-35
2021/07/15 10:47:06;;;;;;;14.85;10.13;;;;;;;17.70;100.00;101511.94;5075497;28;19962;-36
2021/07/15 10:49:33;;;;;;;17.20;11.00;;;;;;;17.70;100.00;101526.44;5075731;28;20426;-35
2021/07/15 10:52:01;;;;;;;14.45;9.75;;;;;;;17.67;100.00;101526.97;5075943;28;20024;-35
2021/07/15 10:54:28;;;;;;;15.40;9.77;;;;;;;17.66;100.00;101528.03;5075557;28;20530;-35
2021/07/15 10:56:53;;;;;;;14.18;10.02;;;;;;;17.66;100.00;101524.47;5075329;28;20032;-35
2021/07/15 10:59:28;;;;;;;;;;;;;;;17.68;100.00;101538.75;5076003;28;20034;-35
2021/07/15 11:01:56;;;;;;;14.35;8.68;;;;;;;17.60;100.00;101531.00;5076294;28;19904;-35
2021/07/15 11:04:34;;;;;;;15.68;8.82;;;;;;;17.53;100.00;101536.72;5076194;28;20120;-36
2021/07/15 11:07:22;;;;;;;13.27;9.10;;;;;;;17.51;100.00;101536.94;5075048;28;20028;-36
2021/07/15 11:09:51;;;;;;;15.27;8.68;;;;;;;17.55;100.00;101533.69;5076167;28;20405;-35
2021/07/15 11:12:32;;;;;;;14.00;9.07;;;;;;;17.47;100.00;101529.53;5076094;28;20039;-35
2021/07/15 11:15:43;;;;;;;13.45;9.00;;;;;;;17.57;100.00;101548.78;5075156;28;20025;-35
2021/07/15 11:18:08;;;;;;;13.48;9.63;;;;;;;17.55;100.00;101545.47;5075762;28;20094;-36
2021/07/15 11:20:34;;;;;;;13.95;9.40;;;;;;;17.49;100.00;101550.06;5075714;28;20457;-35
2021/07/15 11:23:08;;;;;;;;;;;;;;;17.56;100.00;101555.31;5075506;28;20029;-35